createdAt,value
2019-03-09T00:00:01.469Z,83.00
2019-03-09T00:01:01.898Z,82.71
2019-03-09T00:02:01.325Z,82.71
2019-03-09T00:03:01.473Z,82.43
2019-03-09T00:04:01.618Z,82.71
2019-03-09T00:05:03.569Z,82.71
2019-03-09T00:06:03.499Z,82.62
2019-03-09T00:07:02.054Z,82.34
2019-03-09T00:08:02.200Z,82.91
2019-03-09T00:09:03.697Z,82.91
2019-03-09T00:10:03.813Z,83.29
2019-03-09T00:11:03.285Z,83.10
2019-03-09T00:12:04.127Z,83.53
2019-03-09T00:13:03.692Z,83.62
2019-03-09T00:14:03.934Z,83.76
2019-03-09T00:15:04.325Z,83.48
2019-03-09T00:16:03.633Z,83.58
2019-03-09T00:17:04.271Z,83.72
2019-03-09T00:18:04.689Z,83.67
2019-03-09T00:19:05.349Z,83.58
2019-03-09T00:20:04.976Z,83.76
2019-03-09T00:21:04.872Z,83.53
2019-03-09T00:22:04.463Z,83.72
2019-03-09T00:23:04.611Z,83.76
2019-03-09T00:24:05.345Z,83.67
2019-03-09T00:25:06.795Z,83.06
2019-03-09T00:26:05.668Z,83.62
2019-03-09T00:27:06.025Z,83.15
2019-03-09T00:28:05.411Z,83.62
2019-03-09T00:29:06.669Z,83.62
2019-03-09T00:30:06.377Z,83.72
2019-03-09T00:31:06.524Z,83.82
2019-03-09T00:32:06.777Z,84.20
2019-03-09T00:33:06.754Z,84.01
2019-03-09T00:34:07.772Z,83.91
2019-03-09T00:35:07.308Z,83.53
2019-03-09T00:36:08.113Z,83.53
2019-03-09T00:37:06.822Z,83.82
2019-03-09T00:38:07.675Z,83.44
2019-03-09T00:39:08.561Z,83.72
2019-03-09T00:40:07.694Z,83.62
2019-03-09T00:41:08.149Z,83.72
2019-03-09T00:42:07.683Z,83.25
2019-03-09T00:43:07.864Z,83.06
2019-03-09T00:44:08.896Z,83.15
2019-03-09T00:45:08.694Z,83.06
2019-03-09T00:46:08.335Z,83.00
2019-03-09T00:47:08.536Z,82.29
2019-03-09T00:48:08.696Z,82.43
2019-03-09T00:49:11.144Z,82.43
2019-03-09T00:50:09.021Z,82.24
2019-03-09T00:51:10.453Z,82.24
2019-03-09T00:52:09.359Z,82.34
2019-03-09T00:53:10.275Z,82.05
2019-03-09T00:54:09.711Z,82.53
2019-03-09T00:55:09.875Z,81.77
2019-03-09T00:56:10.938Z,82.34
2019-03-09T00:57:10.157Z,82.15
2019-03-09T00:58:10.258Z,82.34
2019-03-09T00:59:10.414Z,82.15
2019-03-09T01:00:11.812Z,82.62
2019-03-09T01:01:11.308Z,82.62
2019-03-09T01:02:10.934Z,82.15
2019-03-09T01:03:10.919Z,81.96
2019-03-09T01:04:11.007Z,81.67
2019-03-09T01:05:11.165Z,81.96
2019-03-09T01:06:11.304Z,81.67
2019-03-09T01:07:11.448Z,81.67
2019-03-09T01:08:11.588Z,81.77
2019-03-09T01:09:12.991Z,81.58
2019-03-09T01:10:13.184Z,81.20
2019-03-09T01:11:12.193Z,81.20
2019-03-09T01:12:12.287Z,81.77
2019-03-09T01:13:12.473Z,81.38
2019-03-09T01:14:13.420Z,81.38
2019-03-09T01:15:14.050Z,81.58
2019-03-09T01:16:16.031Z,81.01
2019-03-09T01:17:14.280Z,81.29
2019-03-09T01:18:13.985Z,81.20
2019-03-09T01:19:14.272Z,81.29
2019-03-09T01:20:14.726Z,81.20
2019-03-09T01:21:14.568Z,81.01
2019-03-09T01:22:15.693Z,81.01
2019-03-09T01:23:16.062Z,80.82
2019-03-09T01:24:15.917Z,80.15
2019-03-09T01:25:15.540Z,80.72
2019-03-09T01:26:18.344Z,80.91
2019-03-09T01:27:16.327Z,81.38
2019-03-09T01:28:30.124Z,81.48
2019-03-09T01:31:44.439Z,81.96
2019-03-09T01:32:43.149Z,81.96
2019-03-09T01:33:44.572Z,82.34
2019-03-09T01:34:44.412Z,81.86
2019-03-09T01:35:44.832Z,82.43
2019-03-09T01:36:46.807Z,81.67
2019-03-09T01:37:45.991Z,82.15
2019-03-09T01:38:44.453Z,81.96
2019-03-09T01:39:43.666Z,82.34
2019-03-09T01:40:43.540Z,82.43
2019-03-09T01:41:43.677Z,82.43
2019-03-09T01:42:43.827Z,82.24
2019-03-09T01:43:43.961Z,83.76
2019-03-09T01:44:44.081Z,83.86
2019-03-09T01:45:44.249Z,83.39
2019-03-09T01:46:44.475Z,83.58
2019-03-09T01:47:44.843Z,83.58
2019-03-09T01:48:44.654Z,83.76
2019-03-09T01:49:46.151Z,83.48
2019-03-09T01:50:45.684Z,83.10
2019-03-09T01:51:45.690Z,83.67
2019-03-09T01:52:45.404Z,83.58
2019-03-09T01:53:45.625Z,83.58
2019-03-09T01:54:45.842Z,83.19
2019-03-09T01:55:48.022Z,83.10
2019-03-09T01:56:47.144Z,83.39
2019-03-09T01:57:47.205Z,83.76
2019-03-09T01:58:46.525Z,83.00
2019-03-09T01:59:46.620Z,83.48
2019-03-09T02:00:46.778Z,82.81
2019-03-09T02:01:46.930Z,82.71
2019-03-09T02:02:47.719Z,82.71
2019-03-09T02:03:48.089Z,82.53
2019-03-09T02:04:47.462Z,82.62
2019-03-09T02:05:48.037Z,82.43
2019-03-09T02:06:48.083Z,81.96
2019-03-09T02:07:47.998Z,82.15
2019-03-09T02:08:49.488Z,82.53
2019-03-09T02:09:48.424Z,82.24
2019-03-09T02:10:48.507Z,82.05
2019-03-09T02:11:49.897Z,81.96
2019-03-09T02:12:49.309Z,82.53
2019-03-09T02:13:49.122Z,82.81
2019-03-09T02:14:49.135Z,81.96
2019-03-09T02:15:50.189Z,81.96
2019-03-09T02:16:51.000Z,82.15
2019-03-09T02:17:50.338Z,82.15
2019-03-09T02:18:51.804Z,82.15
2019-03-09T02:19:50.713Z,81.29
2019-03-09T02:20:50.049Z,81.29
2019-03-09T02:21:52.555Z,81.20
2019-03-09T02:22:51.904Z,81.20
2019-03-09T02:23:54.232Z,81.48
2019-03-09T02:24:53.311Z,82.15
2019-03-09T02:25:51.323Z,82.53
2019-03-09T02:26:52.337Z,82.43
2019-03-09T02:27:52.140Z,82.05
2019-03-09T02:28:51.426Z,82.34
2019-03-09T02:29:51.583Z,82.24
2019-03-09T02:30:51.793Z,81.96
2019-03-09T02:31:52.431Z,82.15
2019-03-09T02:32:53.305Z,82.05
2019-03-09T02:33:52.654Z,82.53
2019-03-09T02:34:53.660Z,82.05
2019-03-09T02:35:52.635Z,82.05
2019-03-09T02:36:53.969Z,81.96
2019-03-09T02:37:53.785Z,82.15
2019-03-09T02:38:53.094Z,81.96
2019-03-09T02:39:55.733Z,81.96
2019-03-09T02:40:53.963Z,82.53
2019-03-09T02:41:53.916Z,82.43
2019-03-09T02:42:53.847Z,82.34
2019-03-09T02:43:53.983Z,82.15
2019-03-09T02:44:54.164Z,82.15
2019-03-09T02:45:54.334Z,82.15
2019-03-09T02:46:54.459Z,82.62
2019-03-09T02:47:54.628Z,81.96
2019-03-09T02:48:55.329Z,82.43
2019-03-09T02:49:55.509Z,82.62
2019-03-09T02:50:55.046Z,81.96
2019-03-09T02:51:55.204Z,81.67
2019-03-09T02:52:56.575Z,81.29
2019-03-09T02:53:56.757Z,82.15
2019-03-09T02:54:56.665Z,81.29
2019-03-09T02:55:58.079Z,81.86
2019-03-09T02:56:57.315Z,81.48
2019-03-09T02:57:56.216Z,82.05
2019-03-09T02:58:56.375Z,82.43
2019-03-09T02:59:57.764Z,82.53
2019-03-09T03:00:58.096Z,82.53
2019-03-09T03:01:56.834Z,81.58
2019-03-09T03:02:58.220Z,81.67
2019-03-09T03:03:58.363Z,81.48
2019-03-09T03:04:57.946Z,81.20
2019-03-09T03:05:57.504Z,81.48
2019-03-09T03:06:57.652Z,81.58
2019-03-09T03:07:57.864Z,81.10
2019-03-09T03:08:57.885Z,81.29
2019-03-09T03:09:58.923Z,81.29
2019-03-09T03:10:59.375Z,81.38
2019-03-09T03:11:58.372Z,81.20
2019-03-09T03:12:58.503Z,81.29
2019-03-09T03:13:59.798Z,81.48
2019-03-09T03:14:58.889Z,81.01
2019-03-09T03:15:59.026Z,80.82
2019-03-09T03:16:59.209Z,81.20
2019-03-09T03:18:00.880Z,81.10
2019-03-09T03:19:00.465Z,80.91
2019-03-09T03:19:59.834Z,81.10
2019-03-09T03:20:59.796Z,81.38
2019-03-09T03:21:59.950Z,81.48
2019-03-09T03:23:00.127Z,81.01
2019-03-09T03:24:00.478Z,81.05
2019-03-09T03:25:01.250Z,81.71
2019-03-09T03:26:03.053Z,82.19
2019-03-09T03:27:01.693Z,82.48
2019-03-09T03:28:00.916Z,82.19
2019-03-09T03:29:01.043Z,83.33
2019-03-09T03:30:02.444Z,83.81
2019-03-09T03:31:01.413Z,84.76
2019-03-09T03:32:01.503Z,85.14
2019-03-09T03:33:01.996Z,85.42
2019-03-09T03:34:02.015Z,86.09
2019-03-09T03:35:03.420Z,86.14
2019-03-09T03:36:02.148Z,86.80
2019-03-09T03:37:02.682Z,85.86
2019-03-09T03:38:02.437Z,86.80
2019-03-09T03:39:03.566Z,86.80
2019-03-09T03:40:02.745Z,87.09
2019-03-09T03:41:03.812Z,87.19
2019-03-09T03:42:03.135Z,86.99
2019-03-09T03:43:03.369Z,87.19
2019-03-09T03:44:03.430Z,87.47
2019-03-09T03:45:03.554Z,88.61
2019-03-09T03:46:05.329Z,88.33
2019-03-09T03:47:03.881Z,89.47
2019-03-09T03:48:04.763Z,89.47
2019-03-09T03:49:06.016Z,89.66
2019-03-09T03:50:04.483Z,90.23
2019-03-09T03:51:04.626Z,90.14
2019-03-09T03:52:04.755Z,91.08
2019-03-09T03:53:04.967Z,90.80
2019-03-09T03:54:05.100Z,90.42
2019-03-09T03:55:05.796Z,90.85
2019-03-09T03:56:05.499Z,91.28
2019-03-09T03:57:05.772Z,92.61
2019-03-09T03:58:06.133Z,91.99
2019-03-09T03:59:05.862Z,92.08
2019-03-09T04:00:05.982Z,91.80
2019-03-09T04:01:07.440Z,92.37
2019-03-09T04:02:06.882Z,92.75
2019-03-09T04:03:06.440Z,92.18
2019-03-09T04:04:07.994Z,91.80
2019-03-09T04:05:06.901Z,92.27
2019-03-09T04:06:06.937Z,92.46
2019-03-09T04:07:08.340Z,92.51
2019-03-09T04:08:08.484Z,93.13
2019-03-09T04:09:07.743Z,93.51
2019-03-09T04:10:07.456Z,93.89
2019-03-09T04:11:07.591Z,94.08
2019-03-09T04:12:07.702Z,93.70
2019-03-09T04:13:08.203Z,94.46
2019-03-09T04:14:08.003Z,94.46
2019-03-09T04:15:09.302Z,94.74
2019-03-09T04:16:08.235Z,95.03
2019-03-09T04:17:08.376Z,95.70
2019-03-09T04:18:08.516Z,95.51
2019-03-09T04:19:08.859Z,95.98
2019-03-09T04:20:10.141Z,95.89
2019-03-09T04:21:08.965Z,96.17
2019-03-09T04:22:09.127Z,96.45
2019-03-09T04:23:09.218Z,96.93
2019-03-09T04:24:10.131Z,97.22
2019-03-09T04:25:10.863Z,97.31
2019-03-09T04:26:10.685Z,97.31
2019-03-09T04:27:10.024Z,97.41
2019-03-09T04:28:10.140Z,98.17
2019-03-09T04:29:10.251Z,98.26
2019-03-09T04:30:10.302Z,98.45
2019-03-09T04:31:10.488Z,97.97
2019-03-09T04:32:10.643Z,98.36
2019-03-09T04:33:11.121Z,98.45
2019-03-09T04:34:13.083Z,99.11
2019-03-09T04:35:11.109Z,98.83
2019-03-09T04:36:11.337Z,98.93
2019-03-09T04:37:11.838Z,99.59
2019-03-09T04:38:12.369Z,98.74
2019-03-09T04:39:12.096Z,99.02
2019-03-09T04:40:12.273Z,99.21
2019-03-09T04:41:12.442Z,98.83
2019-03-09T04:42:13.422Z,99.02
2019-03-09T04:43:12.382Z,99.50
2019-03-09T04:44:12.586Z,99.99
2019-03-09T04:45:14.906Z,99.69
2019-03-09T04:46:13.257Z,99.50
2019-03-09T04:47:14.263Z,99.59
2019-03-09T04:48:14.464Z,99.50
2019-03-09T04:49:13.987Z,99.21
2019-03-09T04:50:14.494Z,99.50
2019-03-09T04:51:14.767Z,99.97
2019-03-09T04:52:13.729Z,99.11
2019-03-09T04:53:15.217Z,99.40
2019-03-09T04:54:14.337Z,99.97
2019-03-09T04:55:14.436Z,99.78
2019-03-09T04:56:14.314Z,99.99
2019-03-09T04:57:15.905Z,99.40
2019-03-09T04:58:14.893Z,99.50
2019-03-09T04:59:14.856Z,99.88
2019-03-09T05:00:15.611Z,99.69
2019-03-09T05:01:15.803Z,99.69
2019-03-09T05:02:16.379Z,99.78
2019-03-09T05:03:15.515Z,99.97
2019-03-09T05:04:15.625Z,99.97
2019-03-09T05:05:15.792Z,99.99
2019-03-09T05:06:18.050Z,99.59
2019-03-09T05:07:16.332Z,99.99
2019-03-09T05:08:18.588Z,99.78
2019-03-09T05:09:16.384Z,99.99
2019-03-09T05:10:17.128Z,99.97
2019-03-09T05:11:18.035Z,99.97
2019-03-09T05:12:16.814Z,99.50
2019-03-09T05:13:16.957Z,99.99
2019-03-09T05:14:17.119Z,99.99
2019-03-09T05:15:17.245Z,99.99
2019-03-09T05:16:17.809Z,99.99
2019-03-09T05:17:18.702Z,99.97
2019-03-09T05:18:18.237Z,99.99
2019-03-09T05:19:17.847Z,99.99
2019-03-09T05:20:18.271Z,99.99
2019-03-09T05:21:19.350Z,99.99
2019-03-09T05:22:19.182Z,99.99
2019-03-09T05:23:18.404Z,99.99
2019-03-09T05:24:26.024Z,99.97
2019-03-09T05:25:18.720Z,99.88
2019-03-09T05:26:27.639Z,99.99
2019-03-09T05:27:19.726Z,99.99
2019-03-09T05:28:19.261Z,99.99
2019-03-09T05:29:20.201Z,99.99
2019-03-09T05:30:20.265Z,99.99
2019-03-09T05:31:19.724Z,99.99
2019-03-09T05:32:19.938Z,99.99
2019-03-09T05:33:20.118Z,99.99
2019-03-09T05:34:20.901Z,99.99
2019-03-09T05:35:20.747Z,99.99
2019-03-09T05:36:20.986Z,99.99
2019-03-09T05:37:20.863Z,99.99
2019-03-09T05:38:21.071Z,99.99
2019-03-09T05:39:21.112Z,99.99
2019-03-09T05:40:22.091Z,99.99
2019-03-09T05:41:22.412Z,99.99
2019-03-09T05:42:22.571Z,99.99
2019-03-09T05:43:22.296Z,99.99
2019-03-09T05:44:24.078Z,99.99
2019-03-09T05:45:23.755Z,99.99
2019-03-09T05:46:24.530Z,99.99
2019-03-09T05:47:22.408Z,99.99
2019-03-09T05:48:22.598Z,99.99
2019-03-09T05:49:22.808Z,99.99
2019-03-09T05:50:22.965Z,99.99
2019-03-09T05:51:23.816Z,99.99
2019-03-09T05:52:23.241Z,99.99
2019-03-09T05:53:23.359Z,99.99
2019-03-09T05:54:24.921Z,99.99
2019-03-09T05:55:24.973Z,99.99
2019-03-09T05:56:24.591Z,99.99
2019-03-09T05:57:23.836Z,99.99
2019-03-09T05:58:23.994Z,99.99
2019-03-09T05:59:24.079Z,99.99
2019-03-09T06:00:25.507Z,99.99
2019-03-09T06:01:24.830Z,99.99
2019-03-09T06:02:24.523Z,99.99
2019-03-09T06:03:24.673Z,99.99
2019-03-09T06:04:24.868Z,99.99
2019-03-09T06:05:25.348Z,99.99
2019-03-09T06:06:26.424Z,99.99
2019-03-09T06:07:26.517Z,99.99
2019-03-09T06:08:25.518Z,99.99
2019-03-09T06:09:27.024Z,99.99
2019-03-09T06:10:27.493Z,99.99
2019-03-09T06:11:25.989Z,99.99
2019-03-09T06:12:26.594Z,99.99
2019-03-09T06:13:26.321Z,99.99
2019-03-09T06:14:26.577Z,99.99
2019-03-09T06:15:27.834Z,99.99
2019-03-09T06:16:26.841Z,99.99
2019-03-09T06:17:26.996Z,99.99
2019-03-09T06:18:27.159Z,99.99
2019-03-09T06:19:27.348Z,99.99
2019-03-09T06:20:27.527Z,99.99
2019-03-09T06:21:28.941Z,99.99
2019-03-09T06:22:28.661Z,99.99
2019-03-09T06:23:28.739Z,99.99
2019-03-09T06:24:28.919Z,99.99
2019-03-09T06:25:28.294Z,99.99
2019-03-09T06:26:28.530Z,99.99
2019-03-09T06:27:30.727Z,99.99
2019-03-09T06:28:29.331Z,99.99
2019-03-09T06:29:30.071Z,99.99
2019-03-09T06:30:29.087Z,99.99
2019-03-09T06:31:30.973Z,99.99
2019-03-09T06:32:30.551Z,99.99
2019-03-09T06:33:32.593Z,99.99
2019-03-09T06:34:30.968Z,99.99
2019-03-09T06:35:31.674Z,99.99
2019-03-09T06:36:30.681Z,99.99
2019-03-09T06:37:31.407Z,99.99
2019-03-09T06:38:30.776Z,99.99
2019-03-09T06:39:30.594Z,99.99
2019-03-09T06:40:30.727Z,99.99
2019-03-09T06:41:30.977Z,99.99
2019-03-09T06:42:32.122Z,99.99
2019-03-09T06:43:31.090Z,99.99
2019-03-09T06:44:31.266Z,99.99
2019-03-09T06:45:31.404Z,99.99
2019-03-09T06:46:31.573Z,99.99
2019-03-09T06:47:31.732Z,99.99
2019-03-09T06:48:31.873Z,99.99
2019-03-09T06:49:32.012Z,99.99
2019-03-09T06:50:32.156Z,99.99
2019-03-09T06:51:32.845Z,99.99
2019-03-09T06:52:32.957Z,99.99
2019-03-09T06:53:32.658Z,99.99
2019-03-09T06:54:32.828Z,99.99
2019-03-09T06:55:32.988Z,99.99
2019-03-09T06:56:33.169Z,99.99
2019-03-09T06:57:34.655Z,99.99
2019-03-09T06:58:33.699Z,99.99
2019-03-09T06:59:33.662Z,99.99
2019-03-09T07:00:35.133Z,99.99
2019-03-09T07:01:33.934Z,99.99
2019-03-09T07:02:34.107Z,99.99
2019-03-09T07:03:34.175Z,99.99
2019-03-09T07:04:36.131Z,99.99
2019-03-09T07:05:36.974Z,99.99
2019-03-09T07:06:35.638Z,99.99
2019-03-09T07:07:35.457Z,99.99
2019-03-09T07:08:34.864Z,99.99
2019-03-09T07:09:35.857Z,99.99
2019-03-09T07:10:36.665Z,99.99
2019-03-09T07:11:36.673Z,99.99
2019-03-09T07:12:36.755Z,99.99
2019-03-09T07:13:37.297Z,99.99
2019-03-09T07:14:37.643Z,99.99
2019-03-09T07:15:36.987Z,99.99
2019-03-09T07:16:37.279Z,99.99
2019-03-09T07:17:36.546Z,99.99
2019-03-09T07:18:36.352Z,99.99
2019-03-09T07:19:36.492Z,99.99
2019-03-09T07:20:37.828Z,99.99
2019-03-09T07:21:37.716Z,99.99
2019-03-09T07:22:37.060Z,99.99
2019-03-09T07:23:37.161Z,99.99
2019-03-09T07:24:38.911Z,99.99
2019-03-09T07:25:38.542Z,99.99
2019-03-09T07:26:38.515Z,99.99
2019-03-09T07:27:37.929Z,99.99
2019-03-09T07:28:39.185Z,99.99
2019-03-09T07:29:40.549Z,99.99
2019-03-09T07:30:40.284Z,99.99
2019-03-09T07:31:41.790Z,99.99
2019-03-09T07:32:39.901Z,99.99
2019-03-09T07:33:41.948Z,99.99
2019-03-09T07:34:41.812Z,99.99
2019-03-09T07:35:41.935Z,99.99
2019-03-09T07:36:41.247Z,99.99
2019-03-09T07:37:41.632Z,99.55
2019-03-09T07:38:42.013Z,99.46
2019-03-09T07:39:40.039Z,99.41
2019-03-09T07:40:41.600Z,99.36
2019-03-09T07:41:40.273Z,98.55
2019-03-09T07:42:40.444Z,98.55
2019-03-09T07:43:40.810Z,98.08
2019-03-09T07:44:40.706Z,97.89
2019-03-09T07:45:40.853Z,98.65
2019-03-09T07:46:42.050Z,97.60
2019-03-09T07:47:41.751Z,97.60
2019-03-09T07:48:41.317Z,97.60
2019-03-09T07:49:42.873Z,97.60
2019-03-09T07:50:41.678Z,97.99
2019-03-09T07:51:41.849Z,97.79
2019-03-09T07:52:42.025Z,97.03
2019-03-09T07:53:42.245Z,96.46
2019-03-09T07:54:43.678Z,96.84
2019-03-09T07:55:44.048Z,97.13
2019-03-09T07:56:43.162Z,97.08
2019-03-09T07:57:42.931Z,96.32
2019-03-09T07:58:44.644Z,95.94
2019-03-09T07:59:43.367Z,94.93
2019-03-09T08:00:44.854Z,93.22
2019-03-09T08:01:45.145Z,92.32
2019-03-09T08:02:43.917Z,92.65
2019-03-09T08:03:44.086Z,93.12
2019-03-09T08:04:44.770Z,92.74
2019-03-09T08:05:44.396Z,92.65
2019-03-09T08:06:44.582Z,92.55
2019-03-09T08:07:44.776Z,92.08
2019-03-09T08:08:46.381Z,91.46
2019-03-09T08:09:45.789Z,92.32
2019-03-09T08:10:46.091Z,92.60
2019-03-09T08:11:45.575Z,92.69
2019-03-09T08:12:47.412Z,92.79
2019-03-09T08:13:46.689Z,92.69
2019-03-09T08:14:47.264Z,93.60
2019-03-09T08:15:48.761Z,94.37
2019-03-09T08:16:47.569Z,93.74
2019-03-09T08:17:47.575Z,93.17
2019-03-09T08:18:47.387Z,93.93
2019-03-09T08:19:46.851Z,94.13
2019-03-09T08:20:48.494Z,94.13
2019-03-09T08:21:48.126Z,93.27
2019-03-09T08:22:47.811Z,92.50
2019-03-09T08:23:48.450Z,92.89
2019-03-09T08:24:48.294Z,92.74
2019-03-09T08:25:48.323Z,92.22
2019-03-09T08:26:48.583Z,92.17
2019-03-09T08:27:49.232Z,91.60
2019-03-09T08:28:50.505Z,91.41
2019-03-09T08:29:49.903Z,91.79
2019-03-09T08:30:50.135Z,91.88
2019-03-09T08:31:51.337Z,92.08
2019-03-09T08:32:49.764Z,92.46
2019-03-09T08:33:49.515Z,92.27
2019-03-09T08:34:52.838Z,92.13
2019-03-09T08:35:49.976Z,91.98
2019-03-09T08:36:50.299Z,91.98
2019-03-09T08:37:50.433Z,91.41
2019-03-09T08:38:50.730Z,91.69
2019-03-09T08:39:51.478Z,91.69
2019-03-09T08:40:50.259Z,91.31
2019-03-09T08:41:51.268Z,91.31
2019-03-09T08:42:52.185Z,91.41
2019-03-09T08:43:51.145Z,91.50
2019-03-09T08:44:52.784Z,91.41
2019-03-09T08:45:51.953Z,90.36
2019-03-09T08:46:51.853Z,89.89
2019-03-09T08:47:52.970Z,89.89
2019-03-09T08:48:52.170Z,89.89
2019-03-09T08:49:53.029Z,90.08
2019-03-09T08:50:52.102Z,90.55
2019-03-09T08:51:52.643Z,89.98
2019-03-09T08:52:51.871Z,90.12
2019-03-09T08:53:52.156Z,89.45
2019-03-09T08:54:52.788Z,88.69
2019-03-09T08:55:53.850Z,88.31
2019-03-09T08:56:53.798Z,88.31
2019-03-09T08:57:52.821Z,88.54
2019-03-09T08:58:52.970Z,88.21
2019-03-09T08:59:53.126Z,87.45
2019-03-09T09:00:53.649Z,87.87
2019-03-09T09:01:54.297Z,87.78
2019-03-09T09:02:54.931Z,87.30
2019-03-09T09:03:53.725Z,87.02
2019-03-09T09:04:54.159Z,87.26
2019-03-09T09:05:54.848Z,86.88
2019-03-09T09:06:55.006Z,87.35
2019-03-09T09:07:54.468Z,87.74
2019-03-09T09:08:55.933Z,87.74
2019-03-09T09:09:56.298Z,87.45
2019-03-09T09:10:55.471Z,87.93
2019-03-09T09:11:55.191Z,87.16
2019-03-09T09:12:55.173Z,87.07
2019-03-09T09:13:55.290Z,87.74
2019-03-09T09:14:56.509Z,87.74
2019-03-09T09:15:55.630Z,87.74
2019-03-09T09:16:56.597Z,88.31
2019-03-09T09:17:57.316Z,88.88
2019-03-09T09:18:56.177Z,89.17
2019-03-09T09:19:56.741Z,88.93
2019-03-09T09:20:56.432Z,89.31
2019-03-09T09:21:56.633Z,89.69
2019-03-09T09:22:56.747Z,90.17
2019-03-09T09:23:58.575Z,89.89
2019-03-09T09:24:58.365Z,89.40
2019-03-09T09:25:57.882Z,89.89
2019-03-09T09:26:57.695Z,89.31
2019-03-09T09:27:58.924Z,89.60
2019-03-09T09:28:57.960Z,89.79
2019-03-09T09:29:57.665Z,89.83
2019-03-09T09:30:59.033Z,88.88
2019-03-09T09:31:58.611Z,88.98
2019-03-09T09:32:58.260Z,88.12
2019-03-09T09:33:58.647Z,88.21
2019-03-09T09:34:58.658Z,88.50
2019-03-09T09:35:58.831Z,87.83
2019-03-09T09:36:59.016Z,87.83
2019-03-09T09:37:59.567Z,86.98
2019-03-09T09:38:59.895Z,87.54
2019-03-09T09:39:59.602Z,87.74
2019-03-09T09:41:00.247Z,88.21
2019-03-09T09:42:00.162Z,87.54
2019-03-09T09:43:00.008Z,87.83
2019-03-09T09:44:00.847Z,87.74
2019-03-09T09:45:02.009Z,87.54
2019-03-09T09:46:00.443Z,87.74
2019-03-09T09:47:00.850Z,86.98
2019-03-09T09:48:01.384Z,87.16
2019-03-09T09:49:00.887Z,87.74
2019-03-09T09:50:01.075Z,87.74
2019-03-09T09:51:02.526Z,87.35
2019-03-09T09:52:02.106Z,87.35
2019-03-09T09:53:01.494Z,87.35
2019-03-09T09:54:01.603Z,87.64
2019-03-09T09:55:03.195Z,88.12
2019-03-09T09:56:02.852Z,88.21
2019-03-09T09:57:02.968Z,87.54
2019-03-09T09:58:02.234Z,87.35
2019-03-09T09:59:02.515Z,87.07
2019-03-09T10:00:02.696Z,87.35
2019-03-09T10:01:02.641Z,87.16
2019-03-09T10:02:02.787Z,87.16
2019-03-09T10:03:04.397Z,87.26
2019-03-09T10:04:04.881Z,87.16
2019-03-09T10:05:03.169Z,86.88
2019-03-09T10:06:03.326Z,87.26
2019-03-09T10:07:03.424Z,86.88
2019-03-09T10:08:03.510Z,87.07
2019-03-09T10:09:03.680Z,86.49
2019-03-09T10:10:05.836Z,85.93
2019-03-09T10:11:05.002Z,86.88
2019-03-09T10:12:04.832Z,86.88
2019-03-09T10:13:04.418Z,86.88
2019-03-09T10:14:05.318Z,86.40
2019-03-09T10:15:04.398Z,86.54
2019-03-09T10:16:05.304Z,85.39
2019-03-09T10:17:04.992Z,85.68
2019-03-09T10:18:04.845Z,85.54
2019-03-09T10:19:04.947Z,85.35
2019-03-09T10:20:05.197Z,85.45
2019-03-09T10:21:06.336Z,85.64
2019-03-09T10:22:06.118Z,85.73
2019-03-09T10:23:06.906Z,85.25
2019-03-09T10:24:06.921Z,85.35
2019-03-09T10:25:05.760Z,85.45
2019-03-09T10:26:06.562Z,85.83
2019-03-09T10:27:06.105Z,85.64
2019-03-09T10:28:07.155Z,85.35
2019-03-09T10:29:07.007Z,85.25
2019-03-09T10:30:06.786Z,85.06
2019-03-09T10:31:07.270Z,85.06
2019-03-09T10:32:07.074Z,85.06
2019-03-09T10:33:07.692Z,85.45
2019-03-09T10:34:07.773Z,85.25
2019-03-09T10:35:07.351Z,85.73
2019-03-09T10:36:09.952Z,85.73
2019-03-09T10:37:08.353Z,85.93
2019-03-09T10:38:07.784Z,85.64
2019-03-09T10:39:08.645Z,84.59
2019-03-09T10:40:08.695Z,84.72
2019-03-09T10:41:08.778Z,84.53
2019-03-09T10:42:09.643Z,84.44
2019-03-09T10:43:08.970Z,84.72
2019-03-09T10:44:08.954Z,84.34
2019-03-09T10:45:09.418Z,83.77
2019-03-09T10:46:08.974Z,83.96
2019-03-09T10:47:09.257Z,83.48
2019-03-09T10:48:10.547Z,83.67
2019-03-09T10:49:10.062Z,83.48
2019-03-09T10:50:09.907Z,83.77
2019-03-09T10:51:09.939Z,84.06
2019-03-09T10:52:10.240Z,83.77
2019-03-09T10:53:11.853Z,83.87
2019-03-09T10:54:11.201Z,83.87
2019-03-09T10:55:12.164Z,84.44
2019-03-09T10:56:10.930Z,84.16
2019-03-09T10:57:11.736Z,83.87
2019-03-09T10:58:11.571Z,83.29
2019-03-09T10:59:11.309Z,83.87
2019-03-09T11:00:11.793Z,83.58
2019-03-09T11:01:12.680Z,83.39
2019-03-09T11:02:12.127Z,83.77
2019-03-09T11:03:12.490Z,83.48
2019-03-09T11:04:12.613Z,83.87
2019-03-09T11:05:12.480Z,83.01
2019-03-09T11:06:13.157Z,82.82
2019-03-09T11:07:12.407Z,83.96
2019-03-09T11:08:12.555Z,83.05
2019-03-09T11:09:12.710Z,82.95
2019-03-09T11:10:12.914Z,82.57
2019-03-09T11:11:13.066Z,82.15
2019-03-09T11:12:13.535Z,82.43
2019-03-09T11:13:14.200Z,82.34
2019-03-09T11:14:14.109Z,82.63
2019-03-09T11:15:14.876Z,82.72
2019-03-09T11:16:14.297Z,83.11
2019-03-09T11:17:13.951Z,83.01
2019-03-09T11:18:15.723Z,82.91
2019-03-09T11:19:16.331Z,83.01
2019-03-09T11:20:14.704Z,82.43
2019-03-09T11:21:15.997Z,83.01
2019-03-09T11:22:15.418Z,82.72
2019-03-09T11:23:14.936Z,83.11
2019-03-09T11:24:15.577Z,83.11
2019-03-09T11:25:16.906Z,83.01
2019-03-09T11:26:15.408Z,82.43
2019-03-09T11:27:16.460Z,82.06
2019-03-09T11:28:15.706Z,82.15
2019-03-09T11:29:15.749Z,82.06
2019-03-09T11:30:15.896Z,82.29
2019-03-09T11:31:17.521Z,82.09
2019-03-09T11:32:17.728Z,81.90
2019-03-09T11:33:17.562Z,81.62
2019-03-09T11:34:16.586Z,81.71
2019-03-09T11:35:16.693Z,81.71
2019-03-09T11:36:16.857Z,80.95
2019-03-09T11:37:18.305Z,81.24
2019-03-09T11:38:18.714Z,80.19
2019-03-09T11:39:17.331Z,80.47
2019-03-09T11:40:18.512Z,80.09
2019-03-09T11:41:19.550Z,79.80
2019-03-09T11:42:17.879Z,80.09
2019-03-09T11:43:18.788Z,79.80
2019-03-09T11:44:19.528Z,79.65
2019-03-09T11:45:18.335Z,79.43
2019-03-09T11:46:19.587Z,79.36
2019-03-09T11:47:18.680Z,78.94
2019-03-09T11:48:19.752Z,78.47
2019-03-09T11:49:20.546Z,78.18
2019-03-09T11:50:20.737Z,78.22
2019-03-09T11:51:19.282Z,78.31
2019-03-09T11:52:20.594Z,78.41
2019-03-09T11:53:19.649Z,77.59
2019-03-09T11:54:19.809Z,76.54
2019-03-09T11:55:19.940Z,76.35
2019-03-09T11:56:20.133Z,76.25
2019-03-09T11:57:21.461Z,76.35
2019-03-09T11:58:21.606Z,76.54
2019-03-09T11:59:22.105Z,76.64
2019-03-09T12:00:20.677Z,76.25
2019-03-09T12:01:20.838Z,76.45
2019-03-09T12:02:20.926Z,75.68
2019-03-09T12:03:21.040Z,76.35
2019-03-09T12:04:21.126Z,75.78
2019-03-09T12:05:22.234Z,74.85
2019-03-09T12:06:21.524Z,74.57
2019-03-09T12:07:21.667Z,74.76
2019-03-09T12:08:21.800Z,74.57
2019-03-09T12:09:21.900Z,74.57
2019-03-09T12:10:24.122Z,73.55
2019-03-09T12:11:22.942Z,73.17
2019-03-09T12:12:23.486Z,72.41
2019-03-09T12:13:23.817Z,71.30
2019-03-09T12:14:23.658Z,71.73
2019-03-09T12:15:22.789Z,72.25
2019-03-09T12:16:26.007Z,72.25
2019-03-09T12:17:23.783Z,72.60
2019-03-09T12:18:23.335Z,72.31
2019-03-09T12:19:24.951Z,72.41
2019-03-09T12:20:23.805Z,72.22
2019-03-09T12:21:25.618Z,71.87
2019-03-09T12:22:23.960Z,71.68
2019-03-09T12:23:25.206Z,70.72
2019-03-09T12:24:25.835Z,69.60
2019-03-09T12:25:24.971Z,70.09
2019-03-09T12:26:26.202Z,68.90
2019-03-09T12:27:26.247Z,69.76
2019-03-09T12:28:25.014Z,70.15
2019-03-09T12:29:27.504Z,69.92
2019-03-09T12:30:27.255Z,70.21
2019-03-09T12:31:25.954Z,71.07
2019-03-09T12:32:26.862Z,70.21
2019-03-09T12:33:25.801Z,71.55
2019-03-09T12:34:26.909Z,71.70
2019-03-09T12:35:27.084Z,72.08
2019-03-09T12:36:26.156Z,72.66
2019-03-09T12:37:26.393Z,73.43
2019-03-09T12:38:26.539Z,73.04
2019-03-09T12:39:26.756Z,72.28
2019-03-09T12:40:27.261Z,72.47
2019-03-09T12:41:29.564Z,72.37
2019-03-09T12:42:28.582Z,72.47
2019-03-09T12:43:27.257Z,73.04
2019-03-09T12:44:27.445Z,73.04
2019-03-09T12:45:29.072Z,72.31
2019-03-09T12:46:28.781Z,72.18
2019-03-09T12:47:28.782Z,71.42
2019-03-09T12:48:29.651Z,71.64
2019-03-09T12:49:28.193Z,71.26
2019-03-09T12:50:29.206Z,70.97
2019-03-09T12:51:29.241Z,70.68
2019-03-09T12:52:28.787Z,71.16
2019-03-09T12:53:30.191Z,70.59
2019-03-09T12:54:30.271Z,71.89
2019-03-09T12:55:30.611Z,71.55
2019-03-09T12:56:29.993Z,71.42